Time;durP1;ratioP1;P1;durP2;ratioP2;P2;SDS_P1;SDS_P2;PMS_P1;PMS_P2;Temp;Humidity;BMP_temperature;BMP_pressure;BME280_temperature;BME280_humidity;BME280_pressure;Samples;Min_cycle;Max_cycle;Signal;HPM_P1;HPM_P2
2022/01/29 00:00:10;;;;;;;10.50;5.68;;;8.60;46.10;;;;;;4935183;29;20066;-66
2022/01/29 00:02:36;;;;;;;9.00;5.20;;;8.60;46.20;;;;;;4935611;29;20140;-67
2022/01/29 00:05:02;;;;;;;11.68;5.78;;;8.60;46.30;;;;;;4935400;29;20250;-64
2022/01/29 00:07:27;;;;;;;9.48;5.63;;;8.60;46.30;;;;;;4935243;29;20440;-66
2022/01/29 00:10:00;;;;;;;11.45;5.38;;;8.60;46.50;;;;;;4935365;29;20032;-68
2022/01/29 00:12:26;;;;;;;10.20;5.50;;;8.60;46.40;;;;;;4934615;29;20087;-69
2022/01/29 00:14:51;;;;;;;14.18;5.90;;;8.60;47.00;;;;;;4935396;29;20272;-70
2022/01/29 00:17:17;;;;;;;11.75;5.40;;;8.60;46.80;;;;;;4935326;29;20043;-66
2022/01/29 00:19:43;;;;;;;10.52;5.57;;;8.60;47.00;;;;;;4935318;29;20032;-66
2022/01/29 00:22:08;;;;;;;9.68;5.35;;;8.70;47.60;;;;;;4935281;29;20067;-65
2022/01/29 00:24:34;;;;;;;11.93;6.32;;;8.70;47.50;;;;;;4934988;29;20135;-68
2022/01/29 00:27:08;;;;;;;9.32;5.32;;;8.70;47.50;;;;;;4935052;29;20038;-65
2022/01/29 00:29:34;;;;;;;10.07;5.53;;;8.80;48.10;;;;;;4935510;29;20091;-68
2022/01/29 00:32:00;;;;;;;12.57;6.15;;;8.70;48.00;;;;;;4935411;29;20016;-66
2022/01/29 00:34:26;;;;;;;11.10;5.90;;;8.70;47.90;;;;;;4935124;29;20466;-65
2022/01/29 00:36:52;;;;;;;14.00;6.40;;;8.70;47.50;;;;;;4935244;29;20051;-67
2022/01/29 00:39:17;;;;;;;10.73;5.47;;;8.70;47.70;;;;;;4935460;29;20064;-66
2022/01/29 00:41:43;;;;;;;15.77;5.95;;;8.70;47.50;;;;;;4935317;29;20028;-65
2022/01/29 00:44:09;;;;;;;10.63;5.70;;;8.70;47.80;;;;;;4935127;29;20071;-66
2022/01/29 00:46:40;;;;;;;13.93;5.68;;;8.60;47.60;;;;;;4935363;29;20031;-68
2022/01/29 00:49:06;;;;;;;12.85;5.68;;;8.60;47.90;;;;;;4934062;29;20032;-65
2022/01/29 00:51:32;;;;;;;12.25;6.32;;;8.60;48.30;;;;;;4935337;29;20143;-65
2022/01/29 00:53:57;;;;;;;10.98;5.75;;;8.60;48.50;;;;;;4935192;29;20028;-64
2022/01/29 00:56:23;;;;;;;10.65;5.60;;;8.60;48.50;;;;;;4935038;29;20032;-65
2022/01/29 00:58:48;;;;;;;10.75;6.07;;;8.60;48.80;;;;;;4935087;29;20063;-66
2022/01/29 01:01:14;;;;;;;11.75;6.45;;;8.60;48.80;;;;;;4935187;29;20035;-65
2022/01/29 01:03:40;;;;;;;9.35;6.13;;;8.60;49.10;;;;;;4934981;29;20039;-67
2022/01/29 01:06:05;;;;;;;11.90;6.68;;;8.50;49.20;;;;;;4935210;29;20567;-67
2022/01/29 01:08:31;;;;;;;10.07;6.47;;;8.50;49.50;;;;;;4934893;29;20028;-65
2022/01/29 01:10:57;;;;;;;8.70;5.72;;;8.50;49.50;;;;;;4934920;29;20099;-66
2022/01/29 01:13:23;;;;;;;11.48;6.72;;;8.50;49.90;;;;;;4934806;29;20028;-64
2022/01/29 01:15:49;;;;;;;10.38;6.55;;;8.50;49.90;;;;;;4935125;29;20531;-64
2022/01/29 01:18:14;;;;;;;10.40;6.15;;;8.40;49.80;;;;;;4935285;29;20515;-65
2022/01/29 01:20:40;;;;;;;9.85;6.65;;;8.40;50.20;;;;;;4935025;29;20433;-64
2022/01/29 01:23:06;;;;;;;12.73;7.07;;;8.30;50.10;;;;;;4936574;29;20491;-65
2022/01/29 01:25:31;;;;;;;11.82;6.80;;;8.30;50.40;;;;;;4938417;29;20035;-65
2022/01/29 01:27:57;;;;;;;12.05;6.93;;;8.30;50.20;;;;;;4938448;29;20453;-66
2022/01/29 01:30:23;;;;;;;10.80;6.70;;;8.20;50.30;;;;;;4938419;29;20197;-65
2022/01/29 01:32:49;;;;;;;11.32;6.80;;;8.10;50.30;;;;;;4938297;29;20051;-66
2022/01/29 01:35:29;;;;;;;10.63;6.20;;;8.10;50.60;;;;;;4938075;29;20165;-66
2022/01/29 01:38:00;;;;;;;14.13;6.32;;;8.10;50.60;;;;;;4938095;29;20027;-64
2022/01/29 01:40:27;;;;;;;11.57;6.95;;;8.00;50.40;;;;;;4938135;29;20475;-65
2022/01/29 01:43:00;;;;;;;12.85;7.40;;;8.00;50.40;;;;;;4937934;29;20090;-65
2022/01/29 01:45:27;;;;;;;12.07;6.88;;;7.90;50.40;;;;;;4936702;29;20048;-65
2022/01/29 01:47:53;;;;;;;11.75;6.85;;;7.90;50.50;;;;;;4937926;29;20191;-67
2022/01/29 01:50:20;;;;;;;11.50;7.30;;;7.90;50.50;;;;;;4938116;29;20063;-65
2022/01/29 01:52:45;;;;;;;11.43;6.65;;;7.90;50.40;;;;;;4937846;29;20135;-67
2022/01/29 01:55:13;;;;;;;12.55;6.80;;;7.80;50.30;;;;;;4937758;29;20055;-66
2022/01/29 01:57:38;;;;;;;11.90;6.45;;;7.80;50.60;;;;;;4938592;29;20503;-65
2022/01/29 02:00:05;;;;;;;12.00;6.65;;;7.80;50.80;;;;;;4956841;29;20051;-68
2022/01/29 02:02:30;;;;;;;12.57;7.32;;;7.80;50.80;;;;;;4957099;28;20118;-68
2022/01/29 02:04:56;;;;;;;13.35;7.55;;;7.80;50.90;;;;;;4957239;28;20118;-64
2022/01/29 02:07:22;;;;;;;12.52;7.03;;;7.70;51.10;;;;;;4956891;28;20027;-65
2022/01/29 02:09:48;;;;;;;12.45;7.72;;;7.70;51.20;;;;;;4939457;29;20035;-65
2022/01/29 02:12:14;;;;;;;12.70;7.57;;;7.70;51.30;;;;;;4956635;29;20023;-66
2022/01/29 02:14:40;;;;;;;11.55;6.82;;;7.70;51.50;;;;;;4956638;28;20031;-65
2022/01/29 02:17:07;;;;;;;15.30;7.15;;;7.70;51.60;;;;;;4956592;29;20035;-65
2022/01/29 02:19:33;;;;;;;11.90;7.18;;;7.80;51.80;;;;;;4956500;29;20174;-65
2022/01/29 02:21:59;;;;;;;11.68;7.35;;;7.80;51.50;;;;;;4955290;29;20042;-67
2022/01/29 02:24:25;;;;;;;15.65;7.72;;;7.80;51.70;;;;;;4956440;28;20031;-65
2022/01/29 02:26:52;;;;;;;14.73;7.80;;;7.80;51.60;;;;;;4956545;29;20484;-70
2022/01/29 02:29:19;;;;;;;12.32;7.10;;;7.70;51.90;;;;;;4956372;28;20097;-69
2022/01/29 02:31:47;;;;;;;12.77;7.25;;;7.70;52.00;;;;;;4956739;29;20024;-68
2022/01/29 02:34:13;;;;;;;14.95;7.50;;;7.70;52.10;;;;;;4954545;28;20576;-67
2022/01/29 02:36:41;;;;;;;14.23;8.10;;;7.70;52.60;;;;;;4956564;28;20098;-74
2022/01/29 02:39:08;;;;;;;15.23;8.45;;;7.70;52.40;;;;;;4956800;29;20030;-70
2022/01/29 02:41:34;;;;;;;15.82;8.00;;;7.70;52.40;;;;;;4939527;29;20114;-70
2022/01/29 02:44:04;;;;;;;13.30;7.80;;;7.70;52.50;;;;;;4956463;28;20094;-75
2022/01/29 02:46:42;;;;;;;12.75;7.43;;;7.60;52.40;;;;;;4957275;29;20059;-75
2022/01/29 02:49:07;;;;;;;15.25;7.97;;;7.60;52.50;;;;;;4958081;29;20506;-73
2022/01/29 02:51:33;;;;;;;13.10;8.05;;;7.60;52.80;;;;;;4944431;29;20077;-66
2022/01/29 02:54:01;;;;;;;15.77;8.43;;;7.60;52.70;;;;;;4957648;28;20143;-63
2022/01/29 02:56:26;;;;;;;16.67;8.70;;;7.50;52.90;;;;;;4956779;29;20103;-67
2022/01/29 02:58:52;;;;;;;15.32;8.82;;;7.50;53.00;;;;;;4938469;29;20047;-64
2022/01/29 03:01:19;;;;;;;14.57;8.85;;;7.60;53.10;;;;;;4955917;29;20047;-64
2022/01/29 03:03:44;;;;;;;17.30;8.05;;;7.60;53.10;;;;;;4955679;28;20038;-64
2022/01/29 03:06:10;;;;;;;14.32;8.50;;;7.60;53.80;;;;;;4955757;29;20035;-65
2022/01/29 03:08:37;;;;;;;16.00;8.00;;;7.50;53.20;;;;;;4955698;28;20028;-65
2022/01/29 03:11:04;;;;;;;17.42;8.50;;;7.50;53.30;;;;;;4955644;29;20032;-66
2022/01/29 03:13:30;;;;;;;13.30;8.35;;;7.50;53.30;;;;;;4955476;28;20023;-64
2022/01/29 03:15:56;;;;;;;14.75;8.80;;;7.40;53.30;;;;;;4955661;28;20357;-67
2022/01/29 03:18:22;;;;;;;12.52;7.88;;;7.40;53.30;;;;;;4955507;29;20054;-65
2022/01/29 03:20:48;;;;;;;14.43;8.23;;;7.40;53.60;;;;;;4955471;29;20027;-66
2022/01/29 03:23:13;;;;;;;14.52;8.10;;;7.40;53.40;;;;;;4955332;28;20042;-66
2022/01/29 03:25:39;;;;;;;14.27;8.60;;;7.30;53.60;;;;;;4955277;29;20046;-66
2022/01/29 03:28:05;;;;;;;14.02;8.30;;;7.30;54.00;;;;;;4955329;29;20428;-68
2022/01/29 03:30:31;;;;;;;14.75;8.70;;;7.20;53.80;;;;;;4955387;28;20104;-65
2022/01/29 03:32:57;;;;;;;14.93;8.93;;;7.20;54.00;;;;;;4953910;28;20154;-65
2022/01/29 03:35:22;;;;;;;13.18;8.15;;;7.20;54.20;;;;;;4955518;29;20540;-66
2022/01/29 03:37:48;;;;;;;13.25;8.05;;;7.30;54.10;;;;;;4955286;29;20120;-68
2022/01/29 03:40:14;;;;;;;14.18;8.00;;;7.30;54.20;;;;;;4955054;29;20025;-65
2022/01/29 03:42:59;;;;;;;13.75;7.75;;;7.30;53.80;;;;;;4955077;28;20369;-66
2022/01/29 03:45:24;;;;;;;15.35;8.38;;;7.30;53.70;;;;;;4954757;28;20407;-65
2022/01/29 03:47:50;;;;;;;15.07;8.70;;;7.20;53.60;;;;;;4954402;29;20056;-65
2022/01/29 03:50:16;;;;;;;13.65;8.15;;;7.20;54.00;;;;;;4954748;29;20536;-64
2022/01/29 03:52:42;;;;;;;16.70;8.10;;;7.30;54.00;;;;;;4954717;28;20020;-65
2022/01/29 03:55:08;;;;;;;14.45;8.55;;;7.20;54.00;;;;;;4954908;29;20027;-65
2022/01/29 03:57:33;;;;;;;16.25;9.10;;;7.20;53.90;;;;;;4954817;28;20023;-66
2022/01/29 04:00:01;;;;;;;15.48;8.73;;;7.10;53.80;;;;;;4954805;29;20110;-64
2022/01/29 04:02:26;;;;;;;15.25;8.25;;;7.10;53.90;;;;;;4954735;28;20019;-64
2022/01/29 04:04:52;;;;;;;14.50;8.85;;;7.10;53.90;;;;;;4954711;29;20102;-66
2022/01/29 04:07:18;;;;;;;15.93;8.90;;;7.10;54.30;;;;;;4954849;29;20027;-65
2022/01/29 04:09:48;;;;;;;14.88;8.57;;;7.10;54.10;;;;;;4954540;29;20043;-64
2022/01/29 04:12:14;;;;;;;16.77;9.18;;;7.10;54.30;;;;;;4954483;29;20107;-65
2022/01/29 04:14:40;;;;;;;14.73;8.45;;;7.00;54.30;;;;;;4954406;28;20039;-68
2022/01/29 04:17:07;;;;;;;12.68;8.43;;;7.00;54.20;;;;;;4954517;29;20754;-65
2022/01/29 04:19:34;;;;;;;15.18;8.25;;;7.00;54.50;;;;;;4953566;28;20039;-65
2022/01/29 04:22:00;;;;;;;16.92;9.20;;;7.10;54.50;;;;;;4954279;28;20024;-65
2022/01/29 04:24:26;;;;;;;15.93;8.90;;;7.00;54.50;;;;;;4954395;28;20036;-69
2022/01/29 04:26:52;;;;;;;14.98;7.70;;;7.00;54.60;;;;;;4954593;29;20086;-65
2022/01/29 04:29:18;;;;;;;15.00;8.82;;;7.00;54.70;;;;;;4937305;29;20027;-66
2022/01/29 04:31:58;;;;;;;17.13;8.77;;;7.00;54.80;;;;;;4954438;29;20107;-65
2022/01/29 04:34:25;;;;;;;16.05;8.82;;;7.00;55.10;;;;;;4954471;28;20047;-66
2022/01/29 04:36:51;;;;;;;16.08;9.13;;;7.00;55.30;;;;;;4954381;29;20016;-64
2022/01/29 04:39:16;;;;;;;14.63;8.85;;;7.10;55.30;;;;;;4954379;28;20385;-64
2022/01/29 04:41:42;;;;;;;17.58;9.45;;;7.00;55.30;;;;;;4954266;29;20090;-64
2022/01/29 04:44:08;;;;;;;16.77;9.55;;;7.00;55.50;;;;;;4954390;28;20118;-65
2022/01/29 04:46:34;;;;;;;17.30;9.40;;;6.90;55.50;;;;;;4954464;29;20027;-68
2022/01/29 04:48:59;;;;;;;18.15;9.63;;;6.90;55.40;;;;;;4954229;29;20046;-64
2022/01/29 04:51:25;;;;;;;17.27;9.63;;;6.80;55.70;;;;;;4954172;28;20114;-65
2022/01/29 04:53:51;;;;;;;18.15;9.02;;;6.80;55.80;;;;;;4954047;28;20106;-64
2022/01/29 04:56:16;;;;;;;18.08;9.52;;;6.80;56.00;;;;;;4954310;29;20436;-67
2022/01/29 04:58:42;;;;;;;15.77;9.00;;;6.80;56.60;;;;;;4956777;28;20055;-64
2022/01/29 05:01:08;;;;;;;16.17;9.40;;;6.70;55.80;;;;;;4958017;29;20561;-65
2022/01/29 05:03:34;;;;;;;17.35;9.70;;;6.70;55.70;;;;;;4958603;28;20035;-65
2022/01/29 05:06:00;;;;;;;14.48;9.10;;;6.70;55.70;;;;;;4958674;29;20039;-67
2022/01/29 05:08:26;;;;;;;14.23;8.68;;;6.70;55.90;;;;;;4958551;29;20031;-74
2022/01/29 05:10:53;;;;;;;15.32;9.48;;;6.70;55.80;;;;;;4957726;28;20488;-71
2022/01/29 05:13:22;;;;;;;15.88;9.00;;;6.60;55.50;;;;;;4957538;28;20389;-75
2022/01/29 05:27:08;;;;;;;17.00;9.30;;;6.50;56.80;;;;;;4957741;29;20444;-65
2022/01/29 05:29:36;;;;;;;19.92;9.95;;;6.40;57.30;;;;;;4957705;29;20031;-65
2022/01/29 05:32:07;;;;;;;17.42;9.93;;;6.30;57.00;;;;;;4957738;28;20023;-66
2022/01/29 05:34:34;;;;;;;19.52;10.15;;;6.40;56.90;;;;;;4957527;28;20031;-65
2022/01/29 05:37:01;;;;;;;17.60;9.82;;;6.40;57.40;;;;;;4957282;29;20106;-65
2022/01/29 05:39:27;;;;;;;16.02;9.32;;;6.40;57.40;;;;;;4957136;28;20031;-65
2022/01/29 05:41:54;;;;;;;18.77;10.15;;;6.40;57.40;;;;;;4957104;28;20107;-64
2022/01/29 05:44:20;;;;;;;15.90;10.13;;;6.40;57.70;;;;;;4939829;29;20066;-66
2022/01/29 05:46:46;;;;;;;17.30;10.07;;;6.50;57.60;;;;;;4957249;29;20376;-65
2022/01/29 05:49:11;;;;;;;15.85;9.43;;;6.50;57.30;;;;;;4956991;29;20028;-67
2022/01/29 05:51:37;;;;;;;16.10;9.65;;;6.50;57.50;;;;;;4939772;29;20110;-66
2022/01/29 05:54:04;;;;;;;17.77;9.68;;;6.60;57.40;;;;;;4956972;29;20039;-66
2022/01/29 05:56:30;;;;;;;16.63;9.50;;;6.60;57.90;;;;;;4956955;29;20381;-67
2022/01/29 05:58:57;;;;;;;19.35;10.93;;;6.60;57.50;;;;;;4955704;28;20420;-67
2022/01/29 06:01:22;;;;;;;17.55;10.40;;;6.50;57.40;;;;;;4956699;29;20031;-66
2022/01/29 06:03:48;;;;;;;17.05;10.27;;;6.50;57.70;;;;;;4956754;29;20101;-66
2022/01/29 06:06:14;;;;;;;17.00;9.93;;;6.40;57.80;;;;;;4956848;29;20045;-66
2022/01/29 06:08:40;;;;;;;17.75;9.70;;;6.40;57.70;;;;;;4956084;28;20031;-66
2022/01/29 06:11:06;;;;;;;17.60;10.38;;;6.50;58.40;;;;;;4956381;28;20031;-67
2022/01/29 06:13:32;;;;;;;17.88;9.98;;;6.40;57.80;;;;;;4956685;29;20380;-69
2022/01/29 06:15:58;;;;;;;16.73;9.55;;;6.40;58.10;;;;;;4956684;29;20019;-69
2022/01/29 06:18:25;;;;;;;15.48;10.20;;;6.40;57.90;;;;;;4956663;29;20026;-67
2022/01/29 06:20:57;;;;;;;16.77;9.65;;;6.30;57.90;;;;;;4956545;29;20115;-66
2022/01/29 06:23:34;;;;;;;18.02;9.48;;;6.30;58.10;;;;;;4956279;28;20030;-67
2022/01/29 06:26:03;;;;;;;17.85;11.00;;;6.20;58.10;;;;;;4956402;29;20407;-65
2022/01/29 06:28:28;;;;;;;17.95;10.07;;;6.20;58.30;;;;;;4956447;29;20436;-69
2022/01/29 06:30:54;;;;;;;23.65;13.15;;;6.10;58.20;;;;;;4956402;29;20043;-68
2022/01/29 06:33:20;;;;;;;19.70;11.02;;;6.10;58.30;;;;;;4956318;29;20027;-65
2022/01/29 06:35:46;;;;;;;21.40;12.75;;;6.10;58.70;;;;;;4956644;28;20466;-65
2022/01/29 06:38:14;;;;;;;20.83;11.70;;;6.10;58.80;;;;;;4956337;29;20019;-67
2022/01/29 06:40:42;;;;;;;17.17;10.10;;;6.10;59.10;;;;;;4956004;29;20365;-65
2022/01/29 06:43:08;;;;;;;16.20;9.82;;;6.20;59.00;;;;;;4955901;28;20019;-64
2022/01/29 06:45:36;;;;;;;19.98;10.00;;;6.20;58.90;;;;;;4955948;29;20027;-67
2022/01/29 06:48:02;;;;;;;19.42;10.80;;;6.20;58.80;;;;;;4956018;29;20024;-68
2022/01/29 06:50:28;;;;;;;18.23;10.73;;;6.20;59.00;;;;;;4955893;28;20027;-66
2022/01/29 06:52:54;;;;;;;20.17;11.15;;;6.30;59.00;;;;;;4938443;29;20033;-65
2022/01/29 06:55:20;;;;;;;17.65;10.88;;;6.30;59.10;;;;;;4955672;29;20384;-65
2022/01/29 06:57:46;;;;;;;19.95;10.95;;;6.40;59.00;;;;;;4955987;29;20650;-64
2022/01/29 07:00:13;;;;;;;17.88;10.57;;;6.40;59.20;;;;;;4955639;29;20043;-65
2022/01/29 07:02:38;;;;;;;20.75;10.68;;;6.40;58.90;;;;;;4955620;29;20023;-65
2022/01/29 07:05:06;;;;;;;24.98;10.98;;;6.40;58.80;;;;;;4938254;29;20032;-66
2022/01/29 07:07:32;;;;;;;20.75;10.73;;;6.40;58.90;;;;;;4955701;29;20039;-66
2022/01/29 07:09:58;;;;;;;22.23;10.95;;;6.50;58.90;;;;;;4955815;29;20047;-68
2022/01/29 07:12:25;;;;;;;21.33;12.25;;;6.50;58.70;;;;;;4938364;29;20508;-67
2022/01/29 07:14:50;;;;;;;20.85;11.95;;;6.50;58.90;;;;;;4955402;28;20027;-65
2022/01/29 07:17:18;;;;;;;23.45;12.00;;;6.50;58.70;;;;;;4955342;29;20027;-64
2022/01/29 07:19:45;;;;;;;17.75;9.88;;;6.50;58.60;;;;;;4955312;28;20024;-66
2022/01/29 07:22:12;;;;;;;23.30;11.07;;;6.60;58.70;;;;;;4955151;29;20034;-66
2022/01/29 07:24:38;;;;;;;22.48;11.98;;;6.70;58.40;;;;;;4955421;29;20031;-66
2022/01/29 07:27:05;;;;;;;20.13;11.18;;;6.80;58.80;;;;;;4955189;29;20027;-65
2022/01/29 07:29:32;;;;;;;21.05;11.48;;;6.90;58.70;;;;;;4955304;28;20102;-66
2022/01/29 07:31:58;;;;;;;20.55;12.25;;;7.00;58.50;;;;;;4955281;29;20086;-67
2022/01/29 07:34:24;;;;;;;21.02;12.05;;;7.10;57.90;;;;;;4954990;29;20027;-66
2022/01/29 07:36:54;;;;;;;21.63;12.25;;;7.20;57.70;;;;;;4955104;29;20066;-65
2022/01/29 07:39:21;;;;;;;20.25;11.57;;;7.20;57.30;;;;;;4954975;29;20120;-66
2022/01/29 07:41:48;;;;;;;20.83;12.00;;;7.20;57.30;;;;;;4954935;28;20042;-65
2022/01/29 07:44:14;;;;;;;22.02;12.18;;;7.30;57.20;;;;;;4954736;29;20035;-65
2022/01/29 07:46:40;;;;;;;20.67;13.00;;;7.30;57.10;;;;;;4954747;29;20027;-66
2022/01/29 07:49:06;;;;;;;27.33;13.38;;;7.50;57.30;;;;;;4954752;29;20119;-66
2022/01/29 07:51:32;;;;;;;22.00;12.00;;;7.50;56.80;;;;;;4936931;29;20027;-66
2022/01/29 07:53:57;;;;;;;18.67;10.88;;;7.60;56.80;;;;;;4937173;29;20110;-65
2022/01/29 07:56:23;;;;;;;19.27;10.93;;;7.50;56.00;;;;;;4954759;29;20031;-66
2022/01/29 07:58:50;;;;;;;19.38;10.98;;;7.50;55.50;;;;;;4954591;28;20252;-65
2022/01/29 08:01:16;;;;;;;19.13;11.18;;;7.50;55.10;;;;;;4952077;29;20393;-67
2022/01/29 08:03:50;;;;;;;24.30;10.70;;;7.40;55.20;;;;;;4951693;28;20039;-65
2022/01/29 08:06:17;;;;;;;19.00;11.32;;;7.40;54.90;;;;;;4954757;29;20121;-71
2022/01/29 08:08:44;;;;;;;17.30;10.40;;;7.50;55.10;;;;;;4948242;29;20039;-68
2022/01/29 08:11:11;;;;;;;17.52;11.15;;;7.50;55.00;;;;;;4954434;29;20039;-70
2022/01/29 08:13:39;;;;;;;21.25;12.73;;;7.50;55.30;;;;;;4954188;29;20756;-72
2022/01/29 08:16:05;;;;;;;18.65;11.15;;;7.60;54.80;;;;;;4954235;28;20451;-69
2022/01/29 08:18:31;;;;;;;20.25;11.40;;;7.60;55.20;;;;;;4947933;29;20019;-70
2022/01/29 08:20:57;;;;;;;19.50;11.55;;;7.60;55.20;;;;;;4933309;29;20114;-69
2022/01/29 08:23:23;;;;;;;20.05;11.40;;;7.70;55.30;;;;;;4953968;29;20020;-68
2022/01/29 08:25:49;;;;;;;20.23;12.20;;;7.70;55.00;;;;;;4936838;29;20118;-68
2022/01/29 08:28:15;;;;;;;21.85;11.75;;;7.70;54.90;;;;;;4953441;29;20478;-69
2022/01/29 08:30:42;;;;;;;24.13;12.45;;;7.70;54.90;;;;;;4954196;28;20047;-71
2022/01/29 08:33:12;;;;;;;20.17;12.35;;;7.70;55.40;;;;;;4958499;28;20031;-66
2022/01/29 08:35:37;;;;;;;20.88;12.88;;;7.70;55.70;;;;;;4954474;28;20035;-68
2022/01/29 08:38:03;;;;;;;19.95;11.98;;;7.70;55.90;;;;;;4932563;29;20036;-69
2022/01/29 08:40:30;;;;;;;22.40;13.35;;;7.70;55.50;;;;;;4958570;29;20401;-72
2022/01/29 08:42:56;;;;;;;20.33;12.38;;;7.60;56.10;;;;;;4959922;28;20035;-67
2022/01/29 08:45:22;;;;;;;21.50;11.63;;;7.60;55.90;;;;;;4958943;28;20050;-71
2022/01/29 08:47:50;;;;;;;24.38;11.82;;;7.70;56.10;;;;;;4957201;28;20034;-69
2022/01/29 08:50:17;;;;;;;21.48;12.07;;;7.80;56.60;;;;;;4942621;29;20155;-70
2022/01/29 08:52:43;;;;;;;20.75;12.48;;;7.80;55.80;;;;;;4958232;29;20062;-70
2022/01/29 08:55:10;;;;;;;23.40;13.18;;;7.90;55.70;;;;;;4959659;28;20075;-71
2022/01/29 08:57:36;;;;;;;24.77;12.57;;;8.00;55.60;;;;;;4959483;28;20015;-72
2022/01/29 09:00:05;;;;;;;19.70;12.60;;;8.00;55.40;;;;;;4959426;28;20400;-73
2022/01/29 09:02:30;;;;;;;18.95;12.02;;;8.10;55.30;;;;;;4938912;28;20027;-68
2022/01/29 09:04:58;;;;;;;18.40;11.15;;;8.20;55.20;;;;;;4957779;28;20315;-74
2022/01/29 09:07:26;;;;;;;26.00;12.25;;;8.20;55.40;;;;;;4958147;28;20499;-69
2022/01/29 09:09:52;;;;;;;18.77;11.80;;;8.20;54.40;;;;;;4959540;28;20037;-69
2022/01/29 09:12:20;;;;;;;29.35;12.82;;;8.20;54.20;;;;;;4959997;28;20437;-70
2022/01/29 09:14:46;;;;;;;20.58;12.70;;;8.20;55.50;;;;;;4960183;28;20038;-72
2022/01/29 09:17:13;;;;;;;32.85;12.75;;;8.30;54.40;;;;;;4959875;28;20028;-70
2022/01/29 09:19:39;;;;;;;23.58;11.50;;;8.40;55.20;;;;;;4959770;29;20042;-69
2022/01/29 09:22:04;;;;;;;23.65;11.20;;;8.40;53.70;;;;;;4959773;29;20027;-73
2022/01/29 09:24:32;;;;;;;20.48;11.93;;;8.50;53.80;;;;;;4959260;28;20373;-71
2022/01/29 09:27:00;;;;;;;20.15;11.48;;;8.40;53.40;;;;;;4959032;28;20031;-70
2022/01/29 09:29:26;;;;;;;18.90;11.38;;;8.40;53.30;;;;;;4957554;29;20032;-71
2022/01/29 09:31:52;;;;;;;19.95;10.57;;;8.50;53.60;;;;;;4957771;28;20401;-70
2022/01/29 09:34:18;;;;;;;20.00;11.80;;;8.50;53.60;;;;;;4928810;29;20028;-68
2022/01/29 09:36:45;;;;;;;20.08;11.68;;;8.60;53.70;;;;;;4948813;28;20035;-73
2022/01/29 09:39:11;;;;;;;21.27;11.90;;;8.80;53.80;;;;;;4941001;29;20080;-74
2022/01/29 09:41:41;;;;;;;18.75;11.70;;;8.90;53.80;;;;;;4942680;29;20111;-70
2022/01/29 09:44:08;;;;;;;20.55;11.43;;;9.00;53.40;;;;;;4939453;29;20044;-72
2022/01/29 09:46:35;;;;;;;22.58;12.05;;;9.10;53.60;;;;;;4938126;29;20112;-75
2022/01/29 09:49:01;;;;;;;19.23;11.52;;;9.20;53.20;;;;;;4951481;28;20035;-73
2022/01/29 09:51:30;;;;;;;18.02;11.43;;;9.30;53.30;;;;;;4958014;29;20365;-80
2022/01/29 09:53:57;;;;;;;21.45;12.20;;;9.40;53.00;;;;;;4941346;28;20086;-78
2022/01/29 09:56:22;;;;;;;17.52;10.82;;;9.50;52.60;;;;;;4956257;28;20050;-75
2022/01/29 09:58:49;;;;;;;18.73;12.35;;;9.50;51.80;;;;;;4957404;28;20123;-76
2022/01/29 10:01:18;;;;;;;28.20;12.40;;;9.70;52.80;;;;;;4956263;28;20152;-81
2022/01/29 10:04:02;;;;;;;25.20;13.48;;;9.70;51.80;;;;;;4939183;29;20130;-77
2022/01/29 10:06:28;;;;;;;20.17;12.07;;;9.80;51.20;;;;;;4956697;28;20031;-79
2022/01/29 10:08:54;;;;;;;20.50;11.45;;;9.80;50.20;;;;;;4956726;29;20034;-79
2022/01/29 10:11:24;;;;;;;19.95;12.18;;;9.90;50.20;;;;;;4956682;28;20110;-77
2022/01/29 10:13:52;;;;;;;18.38;10.98;;;10.00;49.10;;;;;;4956666;28;20054;-78
2022/01/29 10:16:20;;;;;;;17.70;10.93;;;10.00;49.00;;;;;;4956963;28;20035;-78
2022/01/29 10:19:10;;;;;;;16.25;10.30;;;10.10;49.00;;;;;;4957879;28;20028;-78
2022/01/29 10:21:47;;;;;;;21.65;10.95;;;10.20;48.40;;;;;;4957315;28;20472;-76
2022/01/29 10:24:18;;;;;;;27.52;11.75;;;10.30;48.10;;;;;;4956215;28;20027;-75
2022/01/29 10:26:49;;;;;;;16.05;9.45;;;10.40;47.90;;;;;;4939241;29;20067;-72
2022/01/29 10:29:18;;;;;;;19.73;11.18;;;10.60;47.10;;;;;;4956199;28;20020;-73
2022/01/29 10:31:52;;;;;;;20.15;9.68;;;10.70;46.30;;;;;;4956046;28;20055;-75
2022/01/29 10:34:19;;;;;;;;;;;10.90;47.50;;;;;;4939096;29;20051;-73
2022/01/29 10:36:45;;;;;;;14.10;8.40;;;11.00;43.70;;;;;;4956090;29;19914;-77
2022/01/29 10:39:12;;;;;;;14.18;7.10;;;11.10;44.30;;;;;;4956430;29;20027;-78
2022/01/29 10:41:37;;;;;;;17.75;8.20;;;11.20;43.70;;;;;;4938863;28;20061;-79
2022/01/29 10:46:41;;;;;;;;;;;11.40;42.50;;;;;;4955804;28;20031;-70
2022/01/29 10:49:07;;;;;;;8.02;4.63;;;11.60;41.70;;;;;;4936235;29;19925;-71
2022/01/29 10:51:34;;;;;;;10.45;5.05;;;11.70;40.90;;;;;;4938636;29;20031;-70
2022/01/29 10:54:18;;;;;;;11.18;5.53;;;11.70;41.30;;;;;;4938104;29;20133;-72
2022/01/29 10:57:01;;;;;;;11.93;5.25;;;11.80;40.60;;;;;;4954776;28;20027;-68
2022/01/29 10:59:30;;;;;;;8.63;4.38;;;11.90;40.10;;;;;;4937836;29;20070;-67
2022/01/29 11:02:07;;;;;;;10.07;4.72;;;12.00;39.50;;;;;;4955137;29;20031;-67
2022/01/29 11:04:35;;;;;;;12.05;4.90;;;12.10;39.80;;;;;;4943922;29;20043;-69
2022/01/29 11:07:05;;;;;;;9.82;4.05;;;12.20;39.30;;;;;;4955081;29;20066;-67
2022/01/29 11:09:32;;;;;;;13.02;5.18;;;12.30;39.60;;;;;;4955048;29;20055;-68
2022/01/29 11:12:00;;;;;;;10.27;4.50;;;12.30;37.70;;;;;;4952221;29;20020;-68
2022/01/29 11:14:28;;;;;;;8.15;4.13;;;12.40;38.50;;;;;;4954530;28;20114;-67
2022/01/29 11:16:53;;;;;;;8.45;3.88;;;12.50;37.80;;;;;;4953744;28;20098;-69
2022/01/29 11:19:19;;;;;;;9.60;3.28;;;12.50;37.00;;;;;;4937545;29;20083;-66
2022/01/29 11:21:48;;;;;;;7.22;3.40;;;12.60;36.30;;;;;;4948451;29;20476;-72
2022/01/29 11:24:21;;;;;;;6.90;3.13;;;12.70;36.00;;;;;;4955073;29;20027;-70
2022/01/29 11:26:47;;;;;;;7.07;2.92;;;12.80;35.30;;;;;;4937868;29;20035;-75
2022/01/29 11:29:36;;;;;;;7.28;3.10;;;12.80;36.00;;;;;;4955314;28;20118;-73
2022/01/29 11:32:24;;;;;;;7.30;3.35;;;12.90;34.00;;;;;;4954655;29;20125;-70
2022/01/29 11:35:08;;;;;;;6.50;3.25;;;13.00;35.70;;;;;;4954791;29;20479;-71
2022/01/29 11:37:53;;;;;;;7.90;3.22;;;13.10;35.30;;;;;;4937450;29;20090;-76
2022/01/29 11:40:27;;;;;;;8.15;2.63;;;13.10;35.30;;;;;;4954732;29;20055;-70
2022/01/29 11:42:58;;;;;;;6.53;3.08;;;13.20;33.30;;;;;;4954682;29;20106;-72
2022/01/29 11:45:42;;;;;;;9.32;2.60;;;13.20;33.30;;;;;;4954794;29;20134;-69
2022/01/29 11:48:32;;;;;;;8.07;3.10;;;13.30;33.30;;;;;;4937805;29;20496;-70
2022/01/29 11:50:59;;;;;;;7.22;3.10;;;13.30;33.20;;;;;;4937208;29;20126;-71
2022/01/29 11:53:45;;;;;;;6.43;2.50;;;13.40;34.50;;;;;;4954385;29;20091;-71
2022/01/29 11:56:31;;;;;;;6.75;2.88;;;13.50;33.00;;;;;;4954728;29;20038;-67
2022/01/29 11:59:19;;;;;;;10.68;3.05;;;13.50;33.20;;;;;;4952578;29;20043;-70
2022/01/29 12:01:52;;;;;;;13.63;3.30;;;13.60;32.00;;;;;;4952689;29;20031;-70
2022/01/29 12:04:21;;;;;;;5.63;2.67;;;13.60;31.80;;;;;;4954539;28;20118;-70
2022/01/29 12:07:25;;;;;;;6.30;2.58;;;13.60;32.70;;;;;;4952541;28;20358;-67
2022/01/29 12:09:58;;;;;;;6.32;2.83;;;13.70;30.70;;;;;;4954673;29;20472;-70
2022/01/29 12:12:27;;;;;;;5.57;2.55;;;13.70;32.20;;;;;;4954523;29;20031;-70
2022/01/29 12:15:09;;;;;;;9.38;3.00;;;13.80;32.50;;;;;;4954849;28;20465;-69
2022/01/29 12:17:45;;;;;;;5.60;2.63;;;13.80;31.20;;;;;;4954490;28;20062;-70
2022/01/29 12:20:14;;;;;;;9.35;2.80;;;13.90;30.90;;;;;;4952628;28;20023;-69
2022/01/29 12:22:41;;;;;;;10.30;3.65;;;13.90;30.20;;;;;;4952740;29;20480;-68
2022/01/29 12:25:09;;;;;;;8.68;3.83;;;14.00;33.00;;;;;;4951941;28;20066;-71
2022/01/29 12:27:55;;;;;;;6.47;3.17;;;14.10;33.20;;;;;;4951145;28;20480;-70
2022/01/29 12:30:39;;;;;;;6.25;3.00;;;14.20;31.40;;;;;;4952763;29;20042;-72
2022/01/29 12:33:12;;;;;;;9.02;3.65;;;14.30;31.20;;;;;;4935074;29;20405;-72
2022/01/29 12:35:38;;;;;;;5.50;2.80;;;14.40;30.90;;;;;;4952628;28;20027;-73
2022/01/29 12:38:10;;;;;;;5.82;2.88;;;14.50;32.20;;;;;;4952915;28;20096;-70
2022/01/29 12:40:39;;;;;;;6.22;3.00;;;14.50;31.30;;;;;;4953322;28;20560;-70
2022/01/29 12:43:30;;;;;;;8.65;3.05;;;14.40;29.20;;;;;;4947346;28;20054;-66
2022/01/29 12:46:16;;;;;;;5.18;2.45;;;14.40;29.70;;;;;;4934127;29;20063;-66
2022/01/29 12:49:04;;;;;;;5.95;2.72;;;14.40;29.80;;;;;;4933941;29;20103;-66
2022/01/29 12:51:30;;;;;;;5.75;2.60;;;14.50;29.10;;;;;;4934411;29;20054;-74
2022/01/29 12:53:57;;;;;;;7.10;2.60;;;14.50;28.90;;;;;;4934141;29;20426;-68
2022/01/29 12:56:31;;;;;;;8.32;3.35;;;14.60;29.30;;;;;;4934390;29;20024;-74
2022/01/29 12:58:59;;;;;;;6.60;2.83;;;14.70;28.60;;;;;;4917379;29;20409;-79
2022/01/29 13:01:25;;;;;;;9.02;2.97;;;14.80;29.10;;;;;;4934625;29;20071;-77